createdAt,value
2023-03-16T00:00:45.992Z,94239.28
2023-03-16T00:03:19.151Z,94251.75
2023-03-16T00:05:47.691Z,94243.59
2023-03-16T00:08:14.960Z,94250.78
2023-03-16T00:10:46.749Z,94240.53
2023-03-16T00:13:17.650Z,94242.78
2023-03-16T00:15:54.323Z,94244.41
2023-03-16T00:18:22.380Z,94252.69
2023-03-16T00:20:53.853Z,94249.84
2023-03-16T00:23:27.451Z,94264.53
2023-03-16T00:25:58.966Z,94267.72
2023-03-16T00:28:27.846Z,94243.25
2023-03-16T00:30:59.277Z,94265.19
2023-03-16T00:33:26.886Z,94267.41
2023-03-16T00:36:04.023Z,94258.16
2023-03-16T00:38:34.813Z,94263.59
2023-03-16T00:41:04.220Z,94267.59
2023-03-16T00:43:32.252Z,94270.78
2023-03-16T00:46:01.516Z,94276.56
2023-03-16T00:48:28.265Z,94274.47
2023-03-16T00:50:54.941Z,94287.25
2023-03-16T00:53:22.290Z,94282.47
2023-03-16T00:55:49.310Z,94273.34
2023-03-16T00:58:15.990Z,94274.16
2023-03-16T01:00:43.140Z,94269.81
2023-03-16T01:03:09.861Z,94278.59
2023-03-16T01:05:40.878Z,94278.75
2023-03-16T01:08:08.466Z,94277.50
2023-03-16T01:10:36.113Z,94275.91
2023-03-16T01:13:03.261Z,94274.94
2023-03-16T01:15:34.935Z,94274.47
2023-03-16T01:18:02.027Z,94280.69
2023-03-16T01:20:29.107Z,94288.53
2023-03-16T01:22:56.051Z,94282.31
2023-03-16T01:25:24.304Z,94283.06
2023-03-16T01:27:51.033Z,94283.72
2023-03-16T01:30:17.912Z,94286.13
2023-03-16T01:32:44.701Z,94283.06
2023-03-16T01:35:11.930Z,94271.25
2023-03-16T01:37:38.689Z,94277.66
2023-03-16T01:40:06.914Z,94283.88
2023-03-16T01:42:44.429Z,94281.47
2023-03-16T01:45:48.613Z,94286.75
2023-03-16T01:48:15.410Z,94297.78
2023-03-16T01:50:42.405Z,94288.84
2023-03-16T01:53:10.132Z,94293.97
2023-03-16T01:55:36.872Z,94300.00
2023-03-16T01:58:03.890Z,94295.19
2023-03-16T02:00:32.728Z,94289.94
2023-03-16T02:03:05.234Z,94296.47
2023-03-16T02:05:34.990Z,94299.81
2023-03-16T02:08:02.664Z,94304.09
2023-03-16T02:10:30.031Z,94299.47
2023-03-16T02:12:58.137Z,94298.63
2023-03-16T02:15:25.393Z,94298.28
2023-03-16T02:17:52.181Z,94285.72
2023-03-16T02:20:31.061Z,94291.78
2023-03-16T02:22:58.180Z,94271.91
2023-03-16T02:25:50.335Z,94292.50
2023-03-16T02:28:37.506Z,94291.91
2023-03-16T02:31:05.528Z,94291.09
2023-03-16T02:33:33.102Z,94290.00
2023-03-16T02:35:59.904Z,94285.84
2023-03-16T02:38:26.718Z,94287.94
2023-03-16T02:41:20.730Z,94298.66
2023-03-16T02:44:05.505Z,94299.28
2023-03-16T02:46:35.932Z,94294.31
2023-03-16T02:49:26.604Z,94305.94
2023-03-16T02:51:53.570Z,94294.66
2023-03-16T02:54:20.375Z,94306.34
2023-03-16T02:56:47.406Z,94298.00
2023-03-16T02:59:14.195Z,94306.00
2023-03-16T03:01:40.955Z,94299.63
2023-03-16T03:04:08.151Z,94306.78
2023-03-16T03:06:35.041Z,94312.41
2023-03-16T03:09:02.271Z,94313.16
2023-03-16T03:11:29.100Z,94324.19
2023-03-16T03:13:56.265Z,94325.13
2023-03-16T03:16:23.090Z,94320.66
2023-03-16T03:18:50.097Z,94326.72
2023-03-16T03:21:17.049Z,94336.59
2023-03-16T03:23:46.751Z,94339.72
2023-03-16T03:26:15.393Z,94338.16
2023-03-16T03:28:42.543Z,94340.34
2023-03-16T03:31:17.699Z,94338.28
2023-03-16T03:33:45.083Z,94339.41
2023-03-16T03:36:12.189Z,94332.22
2023-03-16T03:38:38.968Z,94333.66
2023-03-16T03:41:07.771Z,94332.38
2023-03-16T03:43:34.913Z,94341.28
2023-03-16T03:46:02.824Z,94342.22
2023-03-16T03:48:29.798Z,94343.47
2023-03-16T03:50:56.595Z,94349.53
2023-03-16T03:53:23.364Z,94337.06
2023-03-16T03:55:50.254Z,94340.75
2023-03-16T03:58:17.166Z,94334.56
2023-03-16T04:00:44.133Z,94336.66
2023-03-16T04:03:11.046Z,94346.88
2023-03-16T04:05:37.861Z,94341.91
2023-03-16T04:08:04.781Z,94347.66
2023-03-16T04:10:31.770Z,94353.78
2023-03-16T04:12:59.222Z,94367.63
2023-03-16T04:15:26.186Z,94363.84
2023-03-16T04:17:52.873Z,94364.50
2023-03-16T04:20:20.870Z,94360.72
2023-03-16T04:22:47.880Z,94355.81
2023-03-16T04:25:16.892Z,94362.69
2023-03-16T04:27:43.803Z,94363.44
2023-03-16T04:30:15.791Z,94375.38
2023-03-16T04:32:42.662Z,94368.59
2023-03-16T04:35:10.421Z,94368.56
2023-03-16T04:37:37.230Z,94375.97
2023-03-16T04:40:11.927Z,94379.31
2023-03-16T04:42:38.679Z,94377.31
2023-03-16T04:45:05.713Z,94380.81
2023-03-16T04:47:34.094Z,94383.38
2023-03-16T04:50:02.828Z,94380.16
2023-03-16T04:52:29.921Z,94379.66
2023-03-16T04:54:56.742Z,94383.19
2023-03-16T04:57:23.503Z,94370.66
2023-03-16T04:59:50.305Z,94389.19
2023-03-16T05:02:17.730Z,94397.69
2023-03-16T05:04:44.440Z,94397.75
2023-03-16T05:07:11.649Z,94399.56
2023-03-16T05:09:38.386Z,94402.97
2023-03-16T05:12:05.476Z,94396.28
2023-03-16T05:14:32.873Z,94392.13
2023-03-16T05:16:59.707Z,94393.22
2023-03-16T05:19:26.401Z,94387.88
2023-03-16T05:21:53.131Z,94393.16
2023-03-16T05:24:19.909Z,94391.41
2023-03-16T05:26:46.457Z,94398.34
2023-03-16T05:29:13.051Z,94398.06
2023-03-16T05:31:39.752Z,94402.59
2023-03-16T05:34:06.390Z,94394.69
2023-03-16T05:36:35.982Z,94403.72
2023-03-16T05:39:02.846Z,94405.97
2023-03-16T05:41:30.209Z,94417.25
2023-03-16T05:43:56.898Z,94418.25
2023-03-16T05:46:23.764Z,94410.94
2023-03-16T05:48:50.542Z,94415.06
2023-03-16T05:51:17.336Z,94421.59
2023-03-16T05:53:46.961Z,94419.03
2023-03-16T05:56:13.661Z,94425.63
2023-03-16T05:58:40.258Z,94436.53
2023-03-16T06:01:09.596Z,94464.13
2023-03-16T06:03:36.802Z,94463.88
2023-03-16T06:06:04.565Z,94472.63
2023-03-16T06:08:31.317Z,94472.41
2023-03-16T06:10:58.031Z,94474.56
2023-03-16T06:13:24.836Z,94470.41
2023-03-16T06:15:51.602Z,94473.56
2023-03-16T06:18:18.408Z,94474.63
2023-03-16T06:20:47.172Z,94479.13
2023-03-16T06:23:14.167Z,94470.31
2023-03-16T06:25:41.073Z,94465.72
2023-03-16T06:28:08.039Z,94473.06
2023-03-16T06:30:34.887Z,94471.72
2023-03-16T06:33:02.338Z,94471.63
2023-03-16T06:35:29.121Z,94487.56
2023-03-16T06:37:55.900Z,94476.97
2023-03-16T06:40:22.729Z,94491.06
2023-03-16T06:42:49.970Z,94485.47
2023-03-16T06:45:18.428Z,94475.84
2023-03-16T06:47:45.178Z,94486.56
2023-03-16T06:50:12.178Z,94494.75
2023-03-16T06:52:39.248Z,94488.34
2023-03-16T06:55:06.623Z,94488.00
2023-03-16T06:57:33.442Z,94493.28
2023-03-16T07:00:00.278Z,94504.03
2023-03-16T07:02:27.102Z,94498.38
2023-03-16T07:04:54.275Z,94492.97
2023-03-16T07:07:22.005Z,94495.34
2023-03-16T07:09:48.789Z,94498.31
2023-03-16T07:12:15.515Z,94494.09
2023-03-16T07:14:42.297Z,94489.31
2023-03-16T07:17:09.157Z,94485.47
2023-03-16T07:19:35.965Z,94496.19
2023-03-16T07:22:02.971Z,94500.22
2023-03-16T07:24:30.952Z,94508.34
2023-03-16T07:26:57.603Z,94502.94
2023-03-16T07:29:24.315Z,94507.50
2023-03-16T07:31:51.317Z,94502.41
2023-03-16T07:34:18.493Z,94507.72
2023-03-16T07:36:45.303Z,94513.00
2023-03-16T07:39:14.487Z,94511.16
2023-03-16T07:41:41.855Z,94513.47
2023-03-16T07:44:08.594Z,94509.47
2023-03-16T07:46:35.422Z,94503.47
2023-03-16T07:49:02.710Z,94515.13
2023-03-16T07:51:29.435Z,94521.91
2023-03-16T07:53:56.241Z,94519.38
2023-03-16T07:56:23.035Z,94521.53
2023-03-16T07:58:49.737Z,94519.66
2023-03-16T08:01:16.524Z,94528.03
2023-03-16T08:03:44.244Z,94520.00
2023-03-16T08:06:12.226Z,94520.09
2023-03-16T08:08:39.022Z,94529.69
2023-03-16T08:11:05.982Z,94525.81
2023-03-16T08:13:32.877Z,94543.81
2023-03-16T08:16:02.078Z,94538.94
2023-03-16T08:18:30.272Z,94537.59
2023-03-16T08:20:57.777Z,94544.41
2023-03-16T08:23:26.150Z,94538.06
2023-03-16T08:25:54.746Z,94537.13
2023-03-16T08:28:26.016Z,94543.41
2023-03-16T08:30:54.088Z,94545.78
2023-03-16T08:33:23.133Z,94544.97
2023-03-16T08:35:51.048Z,94539.09
2023-03-16T08:38:19.296Z,94545.59
2023-03-16T08:40:49.122Z,94546.25
2023-03-16T08:43:17.232Z,94550.09
2023-03-16T08:45:47.678Z,94546.88
2023-03-16T08:48:15.027Z,94550.09
2023-03-16T08:50:44.160Z,94554.09
2023-03-16T08:53:12.127Z,94548.09
2023-03-16T08:55:38.797Z,94546.47
2023-03-16T08:58:05.591Z,94544.13
2023-03-16T09:00:32.276Z,94545.97
2023-03-16T09:02:59.045Z,94551.91
2023-03-16T09:05:25.847Z,94544.53
2023-03-16T09:07:54.257Z,94548.53
2023-03-16T09:10:23.241Z,94546.34
2023-03-16T09:12:50.708Z,94551.91
2023-03-16T09:15:17.896Z,94553.09
2023-03-16T09:17:45.956Z,94557.22
2023-03-16T09:20:26.918Z,94554.09
2023-03-16T09:22:56.785Z,94541.28
2023-03-16T09:25:25.481Z,94551.88
2023-03-16T09:27:52.873Z,94556.44
2023-03-16T09:30:19.977Z,94553.94
2023-03-16T09:32:49.007Z,94557.84
2023-03-16T09:35:16.088Z,94554.47
2023-03-16T09:38:04.676Z,94557.63
2023-03-16T09:40:30.863Z,94559.50
2023-03-16T09:43:07.303Z,94563.53
2023-03-16T09:46:01.860Z,94560.19
2023-03-16T09:48:32.983Z,94569.16
2023-03-16T09:51:02.315Z,94559.28
2023-03-16T09:53:34.560Z,94564.84
2023-03-16T09:56:04.270Z,94560.84
2023-03-16T09:58:32.973Z,94566.66
2023-03-16T10:01:09.910Z,94560.75
2023-03-16T10:04:04.856Z,94557.72
2023-03-16T10:06:33.348Z,94558.28
2023-03-16T10:09:29.304Z,94556.91
2023-03-16T10:11:58.026Z,94559.28
2023-03-16T10:14:42.804Z,94566.66
2023-03-16T10:17:23.124Z,94565.81
2023-03-16T10:20:09.276Z,94562.28
2023-03-16T10:22:41.092Z,94549.31
2023-03-16T10:25:13.972Z,94554.88
2023-03-16T10:27:45.237Z,94552.53
2023-03-16T10:30:31.426Z,94551.78
2023-03-16T10:33:13.364Z,94542.81
2023-03-16T10:35:54.311Z,94541.97
2023-03-16T10:38:41.301Z,94541.34
2023-03-16T10:41:22.862Z,94546.13
2023-03-16T10:43:52.587Z,94539.16
2023-03-16T10:46:19.513Z,94540.53
2023-03-16T10:49:00.461Z,94540.69
2023-03-16T10:51:36.172Z,94540.34
2023-03-16T10:54:11.037Z,94535.34
2023-03-16T10:56:38.468Z,94535.09
2023-03-16T10:59:35.795Z,94523.69
2023-03-16T11:02:08.522Z,94526.41
2023-03-16T11:04:35.949Z,94515.06
2023-03-16T11:07:02.769Z,94512.63
2023-03-16T11:09:33.992Z,94509.59
2023-03-16T11:12:14.256Z,94495.66
2023-03-16T11:14:44.629Z,94500.81
2023-03-16T11:17:16.353Z,94504.72
2023-03-16T11:19:57.835Z,94497.63
2023-03-16T11:22:25.677Z,94495.88
2023-03-16T11:25:06.056Z,94490.22
2023-03-16T11:27:42.589Z,94494.13
2023-03-16T11:30:15.578Z,94490.63
2023-03-16T11:32:51.235Z,94475.66
2023-03-16T11:35:22.389Z,94488.19
2023-03-16T11:37:59.065Z,94486.72
2023-03-16T11:40:47.615Z,94471.03
2023-03-16T11:43:53.344Z,94465.75
2023-03-16T11:46:26.698Z,94471.13
2023-03-16T11:49:22.387Z,94461.50
2023-03-16T11:51:49.239Z,94457.28
2023-03-16T11:54:38.107Z,94448.31
2023-03-16T11:57:33.046Z,94440.00
2023-03-16T12:00:29.125Z,94453.72
2023-03-16T12:03:11.113Z,94439.63
2023-03-16T12:05:51.076Z,94424.13
2023-03-16T12:09:08.775Z,94425.66
2023-03-16T12:11:53.489Z,94425.00
2023-03-16T12:14:26.754Z,94420.34
2023-03-16T12:17:08.507Z,94408.53
2023-03-16T12:19:47.211Z,94409.16
2023-03-16T12:22:22.929Z,94400.41
2023-03-16T12:24:50.551Z,94399.25
2023-03-16T12:27:24.974Z,94399.19
2023-03-16T12:30:18.859Z,94392.41
2023-03-16T12:33:02.376Z,94386.69
2023-03-16T12:35:34.144Z,94379.97
2023-03-16T12:38:06.096Z,94375.63
2023-03-16T12:40:55.863Z,94377.06
2023-03-16T12:43:29.304Z,94370.88
2023-03-16T12:46:08.586Z,94370.13
2023-03-16T12:48:42.138Z,94370.59
2023-03-16T12:51:08.988Z,94366.97
2023-03-16T12:53:42.408Z,94363.88
2023-03-16T12:56:12.306Z,94355.03
2023-03-16T12:58:45.941Z,94360.25
2023-03-16T13:01:13.786Z,94358.03
2023-03-16T13:03:42.048Z,94343.06
2023-03-16T13:06:17.970Z,94358.94
2023-03-16T13:08:48.893Z,94345.72
2023-03-16T13:11:16.587Z,94348.41
2023-03-16T13:14:01.961Z,94346.59
2023-03-16T13:16:33.625Z,94338.44
2023-03-16T13:19:00.402Z,94337.44
2023-03-16T13:21:39.275Z,94332.44
2023-03-16T13:24:23.124Z,94333.88
2023-03-16T13:26:53.883Z,94332.50
2023-03-16T13:29:23.159Z,94323.63
2023-03-16T13:31:51.273Z,94325.22
2023-03-16T13:34:33.909Z,94318.66
2023-03-16T13:37:01.727Z,94315.41
2023-03-16T13:39:30.662Z,94312.88
2023-03-16T13:42:12.857Z,94310.59
2023-03-16T13:44:42.613Z,94310.78
2023-03-16T13:47:16.816Z,94310.75
2023-03-16T13:50:05.203Z,94316.88
2023-03-16T13:52:34.366Z,94292.84
2023-03-16T13:55:03.345Z,94307.72
2023-03-16T13:57:37.574Z,94317.41
2023-03-16T14:00:17.178Z,94298.78
2023-03-16T14:02:45.052Z,94295.00
2023-03-16T14:05:13.538Z,94311.59
2023-03-16T14:07:40.405Z,94299.34
2023-03-16T14:10:10.127Z,94294.56
2023-03-16T14:12:37.970Z,94295.69
2023-03-16T14:15:07.423Z,94292.28
2023-03-16T14:17:34.271Z,94294.50
2023-03-16T14:20:02.255Z,94297.66
2023-03-16T14:22:37.118Z,94297.53
2023-03-16T14:25:05.766Z,94290.66
2023-03-16T14:27:44.004Z,94297.19
2023-03-16T14:30:24.358Z,94295.78
2023-03-16T14:33:05.824Z,94293.13
2023-03-16T14:35:44.823Z,94292.59
2023-03-16T14:38:32.225Z,94292.28
2023-03-16T14:41:05.037Z,94296.41
2023-03-16T14:43:35.857Z,94294.66
2023-03-16T14:46:07.521Z,94284.31
2023-03-16T14:48:35.746Z,94297.00
2023-03-16T14:51:04.405Z,94290.28
2023-03-16T14:53:31.984Z,94290.47
2023-03-16T14:55:59.644Z,94286.22
2023-03-16T14:58:26.669Z,94287.84
2023-03-16T15:00:53.967Z,94291.25
2023-03-16T15:03:24.218Z,94288.84
2023-03-16T15:05:51.947Z,94289.56
2023-03-16T15:08:28.698Z,94285.31
2023-03-16T15:10:59.023Z,94286.78
2023-03-16T15:13:34.981Z,94273.00
2023-03-16T15:16:05.964Z,94269.53
2023-03-16T15:18:33.639Z,94286.38
2023-03-16T15:21:02.124Z,94280.34
2023-03-16T15:23:29.726Z,94272.34
2023-03-16T15:26:00.485Z,94288.00
2023-03-16T15:28:27.819Z,94283.97
2023-03-16T15:30:57.514Z,94279.19
2023-03-16T15:33:25.029Z,94276.16
2023-03-16T15:35:53.718Z,94277.47
2023-03-16T15:38:24.750Z,94287.53
2023-03-16T15:40:52.268Z,94278.00
2023-03-16T15:43:21.377Z,94279.59
2023-03-16T15:45:48.262Z,94277.22
2023-03-16T15:48:16.470Z,94285.16
2023-03-16T15:50:50.382Z,94276.00
2023-03-16T15:53:31.074Z,94273.63
2023-03-16T15:56:03.814Z,94272.38
2023-03-16T15:58:32.681Z,94277.16
2023-03-16T16:01:00.211Z,94274.75
2023-03-16T16:03:27.825Z,94273.69
2023-03-16T16:05:54.904Z,94279.06
2023-03-16T16:08:21.848Z,94272.25
2023-03-16T16:10:49.661Z,94277.22
2023-03-16T16:13:19.052Z,94278.44
2023-03-16T16:15:47.206Z,94278.84
2023-03-16T16:18:27.314Z,94282.56
2023-03-16T16:20:54.855Z,94284.69
2023-03-16T16:23:21.639Z,94291.03
2023-03-16T16:25:48.731Z,94286.22
2023-03-16T16:28:18.710Z,94296.69
2023-03-16T16:30:46.193Z,94296.25
2023-03-16T16:33:31.132Z,94305.78
2023-03-16T16:36:00.014Z,94305.78
2023-03-16T16:38:26.847Z,94304.94
2023-03-16T16:40:54.584Z,94307.69
2023-03-16T16:43:36.763Z,94306.75
2023-03-16T16:46:07.462Z,94305.34
2023-03-16T16:48:36.907Z,94323.72
2023-03-16T16:51:07.191Z,94320.31
2023-03-16T16:53:33.959Z,94330.41
2023-03-16T16:56:01.107Z,94331.97
2023-03-16T16:58:27.862Z,94330.09
2023-03-16T17:00:58.197Z,94329.03
2023-03-16T17:03:28.420Z,94332.00
2023-03-16T17:05:57.953Z,94338.94
2023-03-16T17:08:25.548Z,94337.97
2023-03-16T17:10:53.450Z,94336.34
2023-03-16T17:13:39.202Z,94338.03
2023-03-16T17:16:07.421Z,94346.00
2023-03-16T17:18:34.129Z,94344.06
2023-03-16T17:21:00.868Z,94346.78
2023-03-16T17:23:33.260Z,94340.50
2023-03-16T17:26:04.364Z,94347.97
2023-03-16T17:28:35.444Z,94347.25
2023-03-16T17:31:02.282Z,94345.19
2023-03-16T17:33:29.177Z,94353.53
2023-03-16T17:35:56.125Z,94349.28
2023-03-16T17:38:25.372Z,94338.97
2023-03-16T17:40:53.229Z,94338.34
2023-03-16T17:43:21.929Z,94337.72
2023-03-16T17:45:51.421Z,94341.19
2023-03-16T17:48:20.361Z,94348.91
2023-03-16T17:50:47.921Z,94357.47
2023-03-16T17:53:15.987Z,94344.88
2023-03-16T17:55:43.838Z,94354.19
2023-03-16T17:58:30.303Z,94363.00
2023-03-16T18:00:58.511Z,94354.06
2023-03-16T18:03:26.601Z,94357.63
2023-03-16T18:05:53.866Z,94373.63
2023-03-16T18:08:29.191Z,94362.94
2023-03-16T18:11:09.815Z,94372.75
2023-03-16T18:13:38.438Z,94359.13
2023-03-16T18:16:06.360Z,94371.81
2023-03-16T18:18:37.089Z,94364.19
2023-03-16T18:21:04.843Z,94379.03
2023-03-16T18:23:35.946Z,94381.34
2023-03-16T18:26:07.098Z,94381.97
2023-03-16T18:28:34.852Z,94386.75
2023-03-16T18:31:03.826Z,94385.38
2023-03-16T18:33:32.679Z,94378.88
2023-03-16T18:36:20.648Z,94399.22
2023-03-16T18:38:50.557Z,94392.84
2023-03-16T18:41:22.844Z,94406.47
2023-03-16T18:43:55.261Z,94403.91
2023-03-16T18:46:29.993Z,94399.44
2023-03-16T18:49:18.399Z,94402.78
2023-03-16T18:51:49.181Z,94379.34
2023-03-16T18:54:30.702Z,94396.91
2023-03-16T18:56:59.016Z,94385.75
2023-03-16T18:59:26.358Z,94398.19
2023-03-16T19:01:53.524Z,94414.34
2023-03-16T19:04:25.656Z,94403.44
2023-03-16T19:06:54.131Z,94406.84
2023-03-16T19:09:23.706Z,94417.75
2023-03-16T19:11:51.166Z,94409.41
2023-03-16T19:14:20.883Z,94417.44
2023-03-16T19:16:47.892Z,94416.19
2023-03-16T19:19:15.244Z,94411.56
2023-03-16T19:21:42.778Z,94407.88
2023-03-16T19:24:20.905Z,94413.31
2023-03-16T19:26:47.729Z,94417.47
2023-03-16T19:29:14.682Z,94418.81
2023-03-16T19:31:41.877Z,94417.84
2023-03-16T19:34:18.650Z,94429.06
2023-03-16T19:36:45.370Z,94424.91
2023-03-16T19:39:17.131Z,94426.66
2023-03-16T19:41:46.579Z,94423.00
2023-03-16T19:44:27.285Z,94439.16
2023-03-16T19:46:55.121Z,94427.16
2023-03-16T19:49:24.445Z,94440.09
2023-03-16T19:51:52.246Z,94440.78
2023-03-16T19:54:31.668Z,94436.13
2023-03-16T19:57:01.200Z,94435.78
2023-03-16T19:59:31.350Z,94428.41
2023-03-16T20:01:58.099Z,94437.69
2023-03-16T20:04:26.634Z,94434.16
2023-03-16T20:06:54.015Z,94428.09
2023-03-16T20:09:22.147Z,94423.28
2023-03-16T20:11:49.600Z,94425.53
2023-03-16T20:14:32.061Z,94431.63
2023-03-16T20:16:59.736Z,94436.75
2023-03-16T20:19:26.603Z,94427.31
2023-03-16T20:21:53.256Z,94432.56
2023-03-16T20:24:21.303Z,94419.44
2023-03-16T20:26:51.456Z,94417.63
2023-03-16T20:29:30.506Z,94434.47
2023-03-16T20:31:57.733Z,94433.84
2023-03-16T20:34:32.464Z,94433.19
2023-03-16T20:37:01.191Z,94435.13
2023-03-16T20:39:28.376Z,94439.28
2023-03-16T20:41:56.391Z,94439.25
2023-03-16T20:44:26.687Z,94444.28
2023-03-16T20:46:56.338Z,94452.63
2023-03-16T20:49:22.988Z,94449.44
2023-03-16T20:51:50.660Z,94451.66
2023-03-16T20:54:17.911Z,94454.72
2023-03-16T20:56:46.631Z,94457.09
2023-03-16T20:59:22.386Z,94457.28
2023-03-16T21:01:50.440Z,94455.88
2023-03-16T21:04:27.792Z,94461.09
2023-03-16T21:06:57.337Z,94461.88
2023-03-16T21:09:24.145Z,94463.00
2023-03-16T21:11:52.813Z,94458.34
2023-03-16T21:14:24.376Z,94466.16
2023-03-16T21:16:52.588Z,94468.88
2023-03-16T21:19:23.405Z,94466.94
2023-03-16T21:21:51.350Z,94462.63
2023-03-16T21:51:32.512Z,94455.28
2023-03-16T21:53:59.344Z,94451.81
2023-03-16T21:56:26.252Z,94458.88
2023-03-16T21:58:53.900Z,94459.56
2023-03-16T22:01:24.810Z,94467.53
2023-03-16T22:03:53.981Z,94467.63
2023-03-16T22:06:25.813Z,94462.50
2023-03-16T22:08:52.688Z,94456.28
2023-03-16T22:11:26.100Z,94456.28
2023-03-16T22:13:52.793Z,94453.06
2023-03-16T22:16:22.101Z,94449.66
2023-03-16T22:18:51.006Z,94453.31
2023-03-16T22:21:36.567Z,94449.50
2023-03-16T22:24:05.545Z,94448.84
2023-03-16T22:26:32.482Z,94446.56
2023-03-16T22:29:02.264Z,94443.00
2023-03-16T22:31:34.172Z,94450.66
2023-03-16T22:34:02.860Z,94451.47
2023-03-16T22:36:30.075Z,94436.13
2023-03-16T22:38:59.972Z,94454.25
2023-03-16T22:41:26.870Z,94444.38
2023-03-16T22:43:54.212Z,94450.59
2023-03-16T22:46:23.762Z,94445.63
2023-03-16T22:48:52.206Z,94438.31
2023-03-16T22:51:30.133Z,94441.75
2023-03-16T22:53:59.963Z,94433.72
2023-03-16T22:56:27.347Z,94440.16
2023-03-16T22:59:04.993Z,94445.53
2023-03-16T23:01:41.913Z,94440.56
2023-03-16T23:04:15.369Z,94435.44
2023-03-16T23:06:42.385Z,94447.06
2023-03-16T23:09:13.730Z,94436.22
2023-03-16T23:11:43.455Z,94448.06
2023-03-16T23:14:14.968Z,94447.84
2023-03-16T23:16:42.033Z,94446.25
2023-03-16T23:19:24.704Z,94437.31
2023-03-16T23:21:53.235Z,94452.28
2023-03-16T23:24:19.927Z,94449.88
2023-03-16T23:26:46.836Z,94448.13
2023-03-16T23:29:13.808Z,94437.44
2023-03-16T23:31:40.990Z,94439.53
2023-03-16T23:34:15.554Z,94449.09
2023-03-16T23:36:42.185Z,94452.44
2023-03-16T23:39:10.532Z,94458.69
2023-03-16T23:41:38.742Z,94450.41
2023-03-16T23:44:06.663Z,94436.91
2023-03-16T23:46:34.076Z,94453.84
2023-03-16T23:49:04.227Z,94458.72
2023-03-16T23:51:35.001Z,94452.38
2023-03-16T23:54:01.730Z,94455.59
2023-03-16T23:56:28.424Z,94453.72
2023-03-16T23:58:55.113Z,94460.13
